sensor_id;sensor_type;location;lat;lon;timestamp;P1;durP1;ratioP1;P2;durP2;ratioP2
62362;SDS011;48396;48.426;1.500;2023-01-09T00:01:33;9.82;;;2.60;;
62362;SDS011;48396;48.426;1.500;2023-01-09T00:04:01;14.48;;;1.95;;
62362;SDS011;48396;48.426;1.500;2023-01-09T00:06:27;10.50;;;2.42;;
62362;SDS011;48396;48.426;1.500;2023-01-09T00:08:52;10.57;;;2.38;;
62362;SDS011;48396;48.426;1.500;2023-01-09T00:11:18;9.90;;;2.72;;
62362;SDS011;48396;48.426;1.500;2023-01-09T00:13:44;12.38;;;2.40;;
62362;SDS011;48396;48.426;1.500;2023-01-09T00:16:11;8.73;;;2.33;;
62362;SDS011;48396;48.426;1.500;2023-01-09T00:18:37;10.27;;;2.10;;
62362;SDS011;48396;48.426;1.500;2023-01-09T00:21:04;8.63;;;2.10;;
62362;SDS011;48396;48.426;1.500;2023-01-09T00:23:31;10.00;;;2.47;;
62362;SDS011;48396;48.426;1.500;2023-01-09T00:28:31;11.70;;;3.15;;
62362;SDS011;48396;48.426;1.500;2023-01-09T00:30:58;11.88;;;2.28;;
62362;SDS011;48396;48.426;1.500;2023-01-09T00:33:28;13.48;;;2.53;;
62362;SDS011;48396;48.426;1.500;2023-01-09T00:35:59;13.23;;;2.38;;
62362;SDS011;48396;48.426;1.500;2023-01-09T00:38:25;14.30;;;2.67;;
62362;SDS011;48396;48.426;1.500;2023-01-09T00:40:51;16.02;;;3.00;;
62362;SDS011;48396;48.426;1.500;2023-01-09T00:43:19;12.35;;;2.97;;
62362;SDS011;48396;48.426;1.500;2023-01-09T00:45:48;11.55;;;2.25;;
62362;SDS011;48396;48.426;1.500;2023-01-09T00:48:15;8.38;;;2.13;;
62362;SDS011;48396;48.426;1.500;2023-01-09T00:50:51;13.98;;;2.95;;
62362;SDS011;48396;48.426;1.500;2023-01-09T00:53:20;17.90;;;3.00;;
62362;SDS011;48396;48.426;1.500;2023-01-09T00:55:47;15.13;;;2.70;;
62362;SDS011;48396;48.426;1.500;2023-01-09T00:58:14;11.13;;;2.40;;
62362;SDS011;48396;48.426;1.500;2023-01-09T01:00:40;12.40;;;3.28;;
62362;SDS011;48396;48.426;1.500;2023-01-09T01:03:05;12.70;;;2.75;;
62362;SDS011;48396;48.426;1.500;2023-01-09T01:05:31;15.57;;;3.47;;
62362;SDS011;48396;48.426;1.500;2023-01-09T01:08:16;13.73;;;2.90;;
62362;SDS011;48396;48.426;1.500;2023-01-09T01:10:43;11.55;;;2.60;;
62362;SDS011;48396;48.426;1.500;2023-01-09T01:13:10;11.40;;;2.50;;
62362;SDS011;48396;48.426;1.500;2023-01-09T01:15:39;11.75;;;2.42;;
62362;SDS011;48396;48.426;1.500;2023-01-09T01:18:06;11.45;;;2.83;;
62362;SDS011;48396;48.426;1.500;2023-01-09T01:20:34;9.73;;;2.47;;
62362;SDS011;48396;48.426;1.500;2023-01-09T01:23:01;13.57;;;2.90;;
62362;SDS011;48396;48.426;1.500;2023-01-09T01:25:27;13.60;;;3.13;;
62362;SDS011;48396;48.426;1.500;2023-01-09T01:27:52;11.90;;;2.70;;
62362;SDS011;48396;48.426;1.500;2023-01-09T01:30:18;12.25;;;3.13;;
62362;SDS011;48396;48.426;1.500;2023-01-09T01:32:44;15.20;;;3.55;;
62362;SDS011;48396;48.426;1.500;2023-01-09T01:35:10;15.75;;;3.00;;
62362;SDS011;48396;48.426;1.500;2023-01-09T01:37:36;13.07;;;2.78;;
62362;SDS011;48396;48.426;1.500;2023-01-09T01:40:03;14.30;;;2.55;;
62362;SDS011;48396;48.426;1.500;2023-01-09T01:42:30;12.30;;;2.42;;
62362;SDS011;48396;48.426;1.500;2023-01-09T01:45:01;15.05;;;3.25;;
62362;SDS011;48396;48.426;1.500;2023-01-09T01:47:33;11.75;;;2.65;;
62362;SDS011;48396;48.426;1.500;2023-01-09T01:55:33;13.90;;;2.90;;
62362;SDS011;48396;48.426;1.500;2023-01-09T01:58:00;16.33;;;2.92;;
62362;SDS011;48396;48.426;1.500;2023-01-09T02:00:34;13.20;;;3.33;;
62362;SDS011;48396;48.426;1.500;2023-01-09T02:03:02;17.92;;;3.88;;
62362;SDS011;48396;48.426;1.500;2023-01-09T02:05:29;12.07;;;2.72;;
62362;SDS011;48396;48.426;1.500;2023-01-09T02:07:55;12.48;;;2.75;;
62362;SDS011;48396;48.426;1.500;2023-01-09T02:10:20;10.05;;;2.50;;
62362;SDS011;48396;48.426;1.500;2023-01-09T02:12:48;11.27;;;2.80;;
62362;SDS011;48396;48.426;1.500;2023-01-09T02:15:14;11.10;;;3.15;;
62362;SDS011;48396;48.426;1.500;2023-01-09T02:20:57;14.88;;;2.80;;
62362;SDS011;48396;48.426;1.500;2023-01-09T02:34:28;15.20;;;2.63;;
62362;SDS011;48396;48.426;1.500;2023-01-09T02:42:37;13.73;;;2.63;;
62362;SDS011;48396;48.426;1.500;2023-01-09T02:45:06;13.20;;;2.60;;
62362;SDS011;48396;48.426;1.500;2023-01-09T02:47:36;14.05;;;2.97;;
62362;SDS011;48396;48.426;1.500;2023-01-09T02:50:08;12.30;;;2.90;;
62362;SDS011;48396;48.426;1.500;2023-01-09T03:04:29;13.35;;;2.42;;
62362;SDS011;48396;48.426;1.500;2023-01-09T03:07:07;10.18;;;2.85;;
62362;SDS011;48396;48.426;1.500;2023-01-09T03:09:44;14.57;;;3.17;;
62362;SDS011;48396;48.426;1.500;2023-01-09T03:12:16;15.32;;;2.65;;
62362;SDS011;48396;48.426;1.500;2023-01-09T03:17:15;13.95;;;2.45;;
62362;SDS011;48396;48.426;1.500;2023-01-09T03:19:46;13.93;;;2.33;;
62362;SDS011;48396;48.426;1.500;2023-01-09T03:22:14;11.10;;;2.80;;
62362;SDS011;48396;48.426;1.500;2023-01-09T03:24:40;18.17;;;2.83;;
62362;SDS011;48396;48.426;1.500;2023-01-09T03:27:06;11.82;;;2.95;;
62362;SDS011;48396;48.426;1.500;2023-01-09T03:29:33;11.00;;;2.38;;
62362;SDS011;48396;48.426;1.500;2023-01-09T03:31:59;12.48;;;2.47;;
62362;SDS011;48396;48.426;1.500;2023-01-09T03:34:25;12.25;;;2.63;;
62362;SDS011;48396;48.426;1.500;2023-01-09T03:36:51;10.80;;;2.58;;
62362;SDS011;48396;48.426;1.500;2023-01-09T03:39:16;16.73;;;3.08;;
62362;SDS011;48396;48.426;1.500;2023-01-09T03:41:42;13.55;;;2.40;;
62362;SDS011;48396;48.426;1.500;2023-01-09T03:44:08;14.85;;;2.97;;
62362;SDS011;48396;48.426;1.500;2023-01-09T03:46:34;11.88;;;2.17;;
62362;SDS011;48396;48.426;1.500;2023-01-09T03:48:59;16.67;;;2.78;;
62362;SDS011;48396;48.426;1.500;2023-01-09T03:51:25;11.00;;;2.47;;
62362;SDS011;48396;48.426;1.500;2023-01-09T03:53:51;10.35;;;2.58;;
62362;SDS011;48396;48.426;1.500;2023-01-09T03:56:16;14.27;;;2.72;;
62362;SDS011;48396;48.426;1.500;2023-01-09T03:58:42;10.95;;;2.25;;
62362;SDS011;48396;48.426;1.500;2023-01-09T04:01:08;12.77;;;2.20;;
62362;SDS011;48396;48.426;1.500;2023-01-09T04:03:37;10.73;;;2.50;;
62362;SDS011;48396;48.426;1.500;2023-01-09T04:06:04;15.20;;;2.38;;
62362;SDS011;48396;48.426;1.500;2023-01-09T04:08:30;9.98;;;2.03;;
62362;SDS011;48396;48.426;1.500;2023-01-09T04:10:56;10.18;;;1.88;;
62362;SDS011;48396;48.426;1.500;2023-01-09T04:13:22;13.57;;;2.28;;
62362;SDS011;48396;48.426;1.500;2023-01-09T04:15:48;12.77;;;2.17;;
62362;SDS011;48396;48.426;1.500;2023-01-09T04:18:14;10.13;;;2.10;;
62362;SDS011;48396;48.426;1.500;2023-01-09T04:20:40;12.40;;;2.92;;
62362;SDS011;48396;48.426;1.500;2023-01-09T04:23:06;10.52;;;2.70;;
62362;SDS011;48396;48.426;1.500;2023-01-09T04:25:32;9.90;;;1.80;;
62362;SDS011;48396;48.426;1.500;2023-01-09T04:27:58;6.53;;;1.67;;
62362;SDS011;48396;48.426;1.500;2023-01-09T04:30:24;8.95;;;2.10;;
62362;SDS011;48396;48.426;1.500;2023-01-09T04:32:50;9.93;;;2.30;;
62362;SDS011;48396;48.426;1.500;2023-01-09T04:35:16;12.13;;;1.80;;
62362;SDS011;48396;48.426;1.500;2023-01-09T04:37:43;9.93;;;1.88;;
62362;SDS011;48396;48.426;1.500;2023-01-09T04:40:09;10.60;;;2.20;;
62362;SDS011;48396;48.426;1.500;2023-01-09T04:42:36;7.10;;;1.73;;
62362;SDS011;48396;48.426;1.500;2023-01-09T04:45:03;5.35;;;1.45;;
62362;SDS011;48396;48.426;1.500;2023-01-09T04:47:30;9.35;;;1.70;;
62362;SDS011;48396;48.426;1.500;2023-01-09T04:49:56;9.35;;;1.73;;
62362;SDS011;48396;48.426;1.500;2023-01-09T04:52:23;7.60;;;1.58;;
62362;SDS011;48396;48.426;1.500;2023-01-09T04:54:49;9.77;;;1.83;;
62362;SDS011;48396;48.426;1.500;2023-01-09T04:57:14;8.50;;;1.58;;
62362;SDS011;48396;48.426;1.500;2023-01-09T04:59:40;9.00;;;2.00;;
62362;SDS011;48396;48.426;1.500;2023-01-09T05:02:06;9.52;;;1.83;;
62362;SDS011;48396;48.426;1.500;2023-01-09T05:04:32;7.43;;;1.90;;
62362;SDS011;48396;48.426;1.500;2023-01-09T05:06:58;10.75;;;1.95;;
62362;SDS011;48396;48.426;1.500;2023-01-09T05:09:24;5.97;;;1.65;;
62362;SDS011;48396;48.426;1.500;2023-01-09T05:11:50;5.65;;;1.58;;
62362;SDS011;48396;48.426;1.500;2023-01-09T05:14:16;7.75;;;1.50;;
62362;SDS011;48396;48.426;1.500;2023-01-09T05:16:42;5.88;;;1.80;;
62362;SDS011;48396;48.426;1.500;2023-01-09T05:19:07;6.40;;;1.48;;
62362;SDS011;48396;48.426;1.500;2023-01-09T05:21:33;8.35;;;1.52;;
62362;SDS011;48396;48.426;1.500;2023-01-09T05:23:59;10.00;;;2.45;;
62362;SDS011;48396;48.426;1.500;2023-01-09T05:26:25;5.53;;;1.60;;
62362;SDS011;48396;48.426;1.500;2023-01-09T05:28:51;6.50;;;1.58;;
62362;SDS011;48396;48.426;1.500;2023-01-09T05:31:18;7.53;;;1.35;;
62362;SDS011;48396;48.426;1.500;2023-01-09T05:33:44;9.95;;;1.80;;
62362;SDS011;48396;48.426;1.500;2023-01-09T05:36:10;7.55;;;1.80;;
62362;SDS011;48396;48.426;1.500;2023-01-09T05:38:36;9.43;;;1.90;;
62362;SDS011;48396;48.426;1.500;2023-01-09T05:41:03;6.30;;;1.40;;
62362;SDS011;48396;48.426;1.500;2023-01-09T05:43:29;4.22;;;1.40;;
62362;SDS011;48396;48.426;1.500;2023-01-09T05:45:55;6.45;;;1.25;;
62362;SDS011;48396;48.426;1.500;2023-01-09T05:48:20;7.30;;;1.55;;
62362;SDS011;48396;48.426;1.500;2023-01-09T05:50:46;6.07;;;1.48;;
62362;SDS011;48396;48.426;1.500;2023-01-09T05:53:12;3.83;;;1.38;;
62362;SDS011;48396;48.426;1.500;2023-01-09T05:55:38;4.97;;;1.30;;
62362;SDS011;48396;48.426;1.500;2023-01-09T05:58:03;3.08;;;1.15;;
62362;SDS011;48396;48.426;1.500;2023-01-09T06:00:29;7.38;;;1.63;;
62362;SDS011;48396;48.426;1.500;2023-01-09T06:02:55;4.90;;;1.45;;
62362;SDS011;48396;48.426;1.500;2023-01-09T06:05:21;9.43;;;1.80;;
62362;SDS011;48396;48.426;1.500;2023-01-09T06:07:47;6.68;;;1.95;;
62362;SDS011;48396;48.426;1.500;2023-01-09T06:10:13;9.50;;;1.48;;
62362;SDS011;48396;48.426;1.500;2023-01-09T06:12:39;7.65;;;1.67;;
62362;SDS011;48396;48.426;1.500;2023-01-09T06:15:06;8.55;;;1.70;;
62362;SDS011;48396;48.426;1.500;2023-01-09T06:17:32;8.50;;;1.50;;
62362;SDS011;48396;48.426;1.500;2023-01-09T06:19:58;8.07;;;1.23;;
62362;SDS011;48396;48.426;1.500;2023-01-09T06:22:24;6.03;;;1.35;;
62362;SDS011;48396;48.426;1.500;2023-01-09T06:24:49;5.55;;;1.23;;
62362;SDS011;48396;48.426;1.500;2023-01-09T06:27:15;11.07;;;1.75;;
62362;SDS011;48396;48.426;1.500;2023-01-09T06:29:41;7.20;;;1.65;;
62362;SDS011;48396;48.426;1.500;2023-01-09T06:32:06;10.35;;;1.75;;
62362;SDS011;48396;48.426;1.500;2023-01-09T06:34:32;8.00;;;1.58;;
62362;SDS011;48396;48.426;1.500;2023-01-09T06:36:58;8.57;;;2.20;;
62362;SDS011;48396;48.426;1.500;2023-01-09T06:39:24;11.25;;;1.77;;
62362;SDS011;48396;48.426;1.500;2023-01-09T06:41:49;8.32;;;1.58;;
62362;SDS011;48396;48.426;1.500;2023-01-09T06:44:15;11.68;;;1.98;;
62362;SDS011;48396;48.426;1.500;2023-01-09T06:46:41;9.80;;;1.80;;
62362;SDS011;48396;48.426;1.500;2023-01-09T06:49:07;10.73;;;1.95;;
62362;SDS011;48396;48.426;1.500;2023-01-09T06:51:33;10.60;;;2.08;;
62362;SDS011;48396;48.426;1.500;2023-01-09T06:53:59;9.13;;;2.22;;
62362;SDS011;48396;48.426;1.500;2023-01-09T06:56:25;11.60;;;2.10;;
62362;SDS011;48396;48.426;1.500;2023-01-09T06:58:51;10.20;;;1.83;;
62362;SDS011;48396;48.426;1.500;2023-01-09T07:01:16;12.25;;;2.35;;
62362;SDS011;48396;48.426;1.500;2023-01-09T07:03:42;3.80;;;1.80;;
62362;SDS011;48396;48.426;1.500;2023-01-09T07:06:08;13.40;;;2.28;;
62362;SDS011;48396;48.426;1.500;2023-01-09T07:08:34;9.75;;;2.10;;
62362;SDS011;48396;48.426;1.500;2023-01-09T07:11:00;12.13;;;1.80;;
62362;SDS011;48396;48.426;1.500;2023-01-09T07:13:25;10.25;;;2.15;;
62362;SDS011;48396;48.426;1.500;2023-01-09T07:15:51;9.63;;;1.88;;
62362;SDS011;48396;48.426;1.500;2023-01-09T07:18:17;7.90;;;2.20;;
62362;SDS011;48396;48.426;1.500;2023-01-09T07:20:43;7.53;;;1.77;;
62362;SDS011;48396;48.426;1.500;2023-01-09T07:23:12;10.75;;;2.35;;
62362;SDS011;48396;48.426;1.500;2023-01-09T07:25:40;8.02;;;1.55;;
62362;SDS011;48396;48.426;1.500;2023-01-09T07:28:07;8.13;;;1.83;;
62362;SDS011;48396;48.426;1.500;2023-01-09T07:30:33;7.18;;;1.52;;
62362;SDS011;48396;48.426;1.500;2023-01-09T07:32:59;12.32;;;2.05;;
62362;SDS011;48396;48.426;1.500;2023-01-09T07:35:25;9.88;;;1.73;;
62362;SDS011;48396;48.426;1.500;2023-01-09T07:37:50;7.50;;;1.80;;
62362;SDS011;48396;48.426;1.500;2023-01-09T07:40:16;10.07;;;2.10;;
62362;SDS011;48396;48.426;1.500;2023-01-09T07:42:42;7.78;;;1.80;;
62362;SDS011;48396;48.426;1.500;2023-01-09T07:45:08;5.13;;;1.75;;
62362;SDS011;48396;48.426;1.500;2023-01-09T07:47:34;8.73;;;1.83;;
62362;SDS011;48396;48.426;1.500;2023-01-09T07:50:00;10.38;;;2.22;;
62362;SDS011;48396;48.426;1.500;2023-01-09T07:52:26;10.55;;;1.88;;
62362;SDS011;48396;48.426;1.500;2023-01-09T07:54:52;8.48;;;2.10;;
62362;SDS011;48396;48.426;1.500;2023-01-09T07:57:17;7.10;;;1.35;;
62362;SDS011;48396;48.426;1.500;2023-01-09T07:59:43;6.90;;;1.95;;
62362;SDS011;48396;48.426;1.500;2023-01-09T08:02:09;8.50;;;1.63;;
62362;SDS011;48396;48.426;1.500;2023-01-09T08:04:36;10.10;;;1.80;;
62362;SDS011;48396;48.426;1.500;2023-01-09T08:07:02;7.00;;;1.85;;
62362;SDS011;48396;48.426;1.500;2023-01-09T08:09:28;7.70;;;1.92;;
62362;SDS011;48396;48.426;1.500;2023-01-09T08:11:54;7.47;;;1.30;;
62362;SDS011;48396;48.426;1.500;2023-01-09T08:14:21;6.88;;;1.67;;
62362;SDS011;48396;48.426;1.500;2023-01-09T08:16:47;7.45;;;1.88;;
62362;SDS011;48396;48.426;1.500;2023-01-09T08:19:13;9.15;;;1.98;;
62362;SDS011;48396;48.426;1.500;2023-01-09T08:21:38;4.93;;;1.63;;
62362;SDS011;48396;48.426;1.500;2023-01-09T08:24:04;8.65;;;1.77;;
62362;SDS011;48396;48.426;1.500;2023-01-09T08:26:30;7.15;;;1.58;;
62362;SDS011;48396;48.426;1.500;2023-01-09T08:28:56;7.05;;;1.48;;
62362;SDS011;48396;48.426;1.500;2023-01-09T08:31:22;5.38;;;1.90;;
62362;SDS011;48396;48.426;1.500;2023-01-09T08:33:47;11.15;;;2.20;;
62362;SDS011;48396;48.426;1.500;2023-01-09T08:36:13;7.10;;;1.90;;
62362;SDS011;48396;48.426;1.500;2023-01-09T08:38:39;8.63;;;1.70;;
62362;SDS011;48396;48.426;1.500;2023-01-09T08:41:05;6.70;;;1.92;;
62362;SDS011;48396;48.426;1.500;2023-01-09T08:43:49;11.05;;;2.05;;
62362;SDS011;48396;48.426;1.500;2023-01-09T08:46:33;9.63;;;1.85;;
62362;SDS011;48396;48.426;1.500;2023-01-09T08:49:18;8.40;;;1.75;;
62362;SDS011;48396;48.426;1.500;2023-01-09T08:51:43;7.95;;;2.15;;
62362;SDS011;48396;48.426;1.500;2023-01-09T08:54:09;7.80;;;1.92;;
62362;SDS011;48396;48.426;1.500;2023-01-09T08:56:35;11.40;;;2.35;;
62362;SDS011;48396;48.426;1.500;2023-01-09T08:59:01;7.47;;;1.88;;
62362;SDS011;48396;48.426;1.500;2023-01-09T09:01:26;7.55;;;1.60;;
62362;SDS011;48396;48.426;1.500;2023-01-09T09:03:52;7.88;;;1.60;;
62362;SDS011;48396;48.426;1.500;2023-01-09T09:06:18;7.22;;;1.90;;
62362;SDS011;48396;48.426;1.500;2023-01-09T09:08:43;8.30;;;1.98;;
62362;SDS011;48396;48.426;1.500;2023-01-09T09:11:09;9.52;;;2.03;;
62362;SDS011;48396;48.426;1.500;2023-01-09T09:13:35;7.95;;;1.67;;
62362;SDS011;48396;48.426;1.500;2023-01-09T09:16:01;9.57;;;1.73;;
62362;SDS011;48396;48.426;1.500;2023-01-09T09:18:27;9.20;;;1.95;;
62362;SDS011;48396;48.426;1.500;2023-01-09T09:20:52;9.65;;;1.80;;
62362;SDS011;48396;48.426;1.500;2023-01-09T09:23:18;4.15;;;1.65;;
62362;SDS011;48396;48.426;1.500;2023-01-09T09:25:44;7.97;;;1.50;;
62362;SDS011;48396;48.426;1.500;2023-01-09T09:28:10;3.45;;;1.25;;
62362;SDS011;48396;48.426;1.500;2023-01-09T09:30:36;4.53;;;1.25;;
62362;SDS011;48396;48.426;1.500;2023-01-09T09:33:03;6.38;;;1.83;;
62362;SDS011;48396;48.426;1.500;2023-01-09T09:35:29;5.63;;;1.33;;
62362;SDS011;48396;48.426;1.500;2023-01-09T09:37:57;9.30;;;2.00;;
62362;SDS011;48396;48.426;1.500;2023-01-09T09:40:28;4.90;;;1.52;;
62362;SDS011;48396;48.426;1.500;2023-01-09T09:43:24;4.45;;;1.33;;
62362;SDS011;48396;48.426;1.500;2023-01-09T09:46:41;4.00;;;1.60;;
62362;SDS011;48396;48.426;1.500;2023-01-09T09:49:46;7.38;;;1.58;;
62362;SDS011;48396;48.426;1.500;2023-01-09T09:54:53;8.93;;;1.90;;
62362;SDS011;48396;48.426;1.500;2023-01-09T09:57:28;4.15;;;1.40;;
62362;SDS011;48396;48.426;1.500;2023-01-09T10:00:01;8.18;;;1.58;;
62362;SDS011;48396;48.426;1.500;2023-01-09T10:02:29;5.80;;;1.42;;
62362;SDS011;48396;48.426;1.500;2023-01-09T10:05:11;9.32;;;2.00;;
62362;SDS011;48396;48.426;1.500;2023-01-09T10:07:46;5.30;;;1.83;;
62362;SDS011;48396;48.426;1.500;2023-01-09T10:12:53;4.10;;;1.20;;
62362;SDS011;48396;48.426;1.500;2023-01-09T10:15:41;6.38;;;1.80;;
62362;SDS011;48396;48.426;1.500;2023-01-09T10:18:15;8.32;;;2.13;;
62362;SDS011;48396;48.426;1.500;2023-01-09T10:20:47;6.35;;;1.60;;
62362;SDS011;48396;48.426;1.500;2023-01-09T10:23:37;6.78;;;1.80;;
62362;SDS011;48396;48.426;1.500;2023-01-09T10:26:27;8.75;;;1.98;;
62362;SDS011;48396;48.426;1.500;2023-01-09T10:29:01;9.95;;;1.65;;
62362;SDS011;48396;48.426;1.500;2023-01-09T10:32:00;11.43;;;1.70;;
62362;SDS011;48396;48.426;1.500;2023-01-09T10:37:22;5.15;;;1.50;;
62362;SDS011;48396;48.426;1.500;2023-01-09T10:39:59;7.50;;;1.52;;
62362;SDS011;48396;48.426;1.500;2023-01-09T10:42:42;8.88;;;1.67;;
62362;SDS011;48396;48.426;1.500;2023-01-09T10:48:05;6.82;;;1.50;;
62362;SDS011;48396;48.426;1.500;2023-01-09T10:50:36;6.55;;;1.60;;
62362;SDS011;48396;48.426;1.500;2023-01-09T10:53:40;9.27;;;1.80;;
62362;SDS011;48396;48.426;1.500;2023-01-09T10:56:24;6.35;;;1.52;;
62362;SDS011;48396;48.426;1.500;2023-01-09T10:58:50;9.02;;;1.90;;
62362;SDS011;48396;48.426;1.500;2023-01-09T11:01:19;6.70;;;1.90;;
62362;SDS011;48396;48.426;1.500;2023-01-09T11:03:51;7.15;;;1.70;;
62362;SDS011;48396;48.426;1.500;2023-01-09T11:06:21;8.30;;;2.10;;
62362;SDS011;48396;48.426;1.500;2023-01-09T11:08:52;4.90;;;1.95;;
62362;SDS011;48396;48.426;1.500;2023-01-09T11:11:31;5.28;;;1.35;;
62362;SDS011;48396;48.426;1.500;2023-01-09T11:16:53;3.42;;;1.63;;
62362;SDS011;48396;48.426;1.500;2023-01-09T11:19:20;4.13;;;1.25;;
62362;SDS011;48396;48.426;1.500;2023-01-09T11:21:47;4.95;;;1.25;;
62362;SDS011;48396;48.426;1.500;2023-01-09T11:26:50;3.47;;;1.50;;
62362;SDS011;48396;48.426;1.500;2023-01-09T11:29:18;5.88;;;2.00;;
62362;SDS011;48396;48.426;1.500;2023-01-09T11:31:55;4.53;;;1.40;;
62362;SDS011;48396;48.426;1.500;2023-01-09T11:34:26;7.05;;;1.88;;
62362;SDS011;48396;48.426;1.500;2023-01-09T11:37:02;7.47;;;2.28;;
62362;SDS011;48396;48.426;1.500;2023-01-09T11:39:32;8.80;;;2.25;;
62362;SDS011;48396;48.426;1.500;2023-01-09T11:42:03;5.22;;;1.70;;
62362;SDS011;48396;48.426;1.500;2023-01-09T11:44:31;6.45;;;1.55;;
62362;SDS011;48396;48.426;1.500;2023-01-09T11:46:57;3.90;;;1.27;;
62362;SDS011;48396;48.426;1.500;2023-01-09T11:49:27;6.13;;;1.50;;
62362;SDS011;48396;48.426;1.500;2023-01-09T11:52:16;8.98;;;2.08;;
62362;SDS011;48396;48.426;1.500;2023-01-09T11:57:13;8.88;;;1.95;;
62362;SDS011;48396;48.426;1.500;2023-01-09T11:59:39;7.78;;;1.60;;
62362;SDS011;48396;48.426;1.500;2023-01-09T12:13:36;11.65;;;1.80;;
62362;SDS011;48396;48.426;1.500;2023-01-09T12:16:10;5.82;;;1.83;;
62362;SDS011;48396;48.426;1.500;2023-01-09T12:18:50;4.93;;;1.80;;
62362;SDS011;48396;48.426;1.500;2023-01-09T12:26:41;4.97;;;1.98;;
62362;SDS011;48396;48.426;1.500;2023-01-09T12:37:28;10.40;;;1.90;;
62362;SDS011;48396;48.426;1.500;2023-01-09T12:40:24;10.30;;;2.15;;
62362;SDS011;48396;48.426;1.500;2023-01-09T12:48:25;4.50;;;1.45;;
62362;SDS011;48396;48.426;1.500;2023-01-09T12:51:29;5.95;;;1.60;;
62362;SDS011;48396;48.426;1.500;2023-01-09T12:54:01;6.80;;;1.45;;
62362;SDS011;48396;48.426;1.500;2023-01-09T12:56:35;6.35;;;1.70;;
62362;SDS011;48396;48.426;1.500;2023-01-09T13:04:54;4.35;;;1.80;;
62362;SDS011;48396;48.426;1.500;2023-01-09T13:07:41;8.82;;;2.17;;
62362;SDS011;48396;48.426;1.500;2023-01-09T13:10:31;7.68;;;1.58;;
62362;SDS011;48396;48.426;1.500;2023-01-09T13:13:04;6.88;;;1.60;;
62362;SDS011;48396;48.426;1.500;2023-01-09T13:15:40;11.45;;;1.92;;
62362;SDS011;48396;48.426;1.500;2023-01-09T13:18:15;8.07;;;2.10;;
62362;SDS011;48396;48.426;1.500;2023-01-09T13:20:55;12.38;;;4.07;;
62362;SDS011;48396;48.426;1.500;2023-01-09T13:26:01;7.25;;;1.92;;
62362;SDS011;48396;48.426;1.500;2023-01-09T13:28:40;10.35;;;2.17;;
62362;SDS011;48396;48.426;1.500;2023-01-09T13:31:49;7.97;;;2.58;;
62362;SDS011;48396;48.426;1.500;2023-01-09T13:34:25;10.73;;;3.65;;
62362;SDS011;48396;48.426;1.500;2023-01-09T13:36:54;6.72;;;1.88;;
62362;SDS011;48396;48.426;1.500;2023-01-09T13:39:31;5.55;;;1.75;;
62362;SDS011;48396;48.426;1.500;2023-01-09T13:42:02;6.75;;;2.38;;
62362;SDS011;48396;48.426;1.500;2023-01-09T13:44:53;7.25;;;2.08;;
62362;SDS011;48396;48.426;1.500;2023-01-09T13:47:31;4.40;;;1.88;;
62362;SDS011;48396;48.426;1.500;2023-01-09T13:49:59;3.20;;;1.33;;
62362;SDS011;48396;48.426;1.500;2023-01-09T13:52:39;6.22;;;1.98;;
62362;SDS011;48396;48.426;1.500;2023-01-09T13:57:41;10.70;;;2.55;;
62362;SDS011;48396;48.426;1.500;2023-01-09T14:02:54;8.55;;;1.92;;
62362;SDS011;48396;48.426;1.500;2023-01-09T14:07:50;5.95;;;1.88;;
62362;SDS011;48396;48.426;1.500;2023-01-09T14:13:29;6.90;;;1.85;;
62362;SDS011;48396;48.426;1.500;2023-01-09T14:16:06;4.57;;;1.63;;
62362;SDS011;48396;48.426;1.500;2023-01-09T14:18:47;5.97;;;1.95;;
62362;SDS011;48396;48.426;1.500;2023-01-09T14:21:14;9.77;;;1.90;;
62362;SDS011;48396;48.426;1.500;2023-01-09T14:23:58;7.10;;;2.10;;
62362;SDS011;48396;48.426;1.500;2023-01-09T14:26:45;7.15;;;1.70;;
62362;SDS011;48396;48.426;1.500;2023-01-09T14:32:45;13.05;;;3.75;;
62362;SDS011;48396;48.426;1.500;2023-01-09T14:39:59;7.13;;;1.63;;
62362;SDS011;48396;48.426;1.500;2023-01-09T14:42:29;9.07;;;1.65;;
62362;SDS011;48396;48.426;1.500;2023-01-09T14:44:57;5.63;;;2.08;;
62362;SDS011;48396;48.426;1.500;2023-01-09T14:52:48;10.10;;;3.25;;
62362;SDS011;48396;48.426;1.500;2023-01-09T15:00:51;10.30;;;1.85;;
62362;SDS011;48396;48.426;1.500;2023-01-09T15:03:28;7.30;;;1.42;;
62362;SDS011;48396;48.426;1.500;2023-01-09T15:06:00;7.03;;;2.17;;
62362;SDS011;48396;48.426;1.500;2023-01-09T15:08:27;6.72;;;2.05;;
62362;SDS011;48396;48.426;1.500;2023-01-09T15:10:54;9.85;;;2.22;;
62362;SDS011;48396;48.426;1.500;2023-01-09T15:13:26;7.28;;;2.10;;
62362;SDS011;48396;48.426;1.500;2023-01-09T15:16:01;5.72;;;1.80;;
62362;SDS011;48396;48.426;1.500;2023-01-09T15:18:30;9.00;;;2.42;;
62362;SDS011;48396;48.426;1.500;2023-01-09T15:21:02;8.85;;;2.15;;
62362;SDS011;48396;48.426;1.500;2023-01-09T15:23:29;11.20;;;2.30;;
62362;SDS011;48396;48.426;1.500;2023-01-09T15:25:55;11.85;;;2.58;;
62362;SDS011;48396;48.426;1.500;2023-01-09T15:28:39;10.02;;;2.03;;
62362;SDS011;48396;48.426;1.500;2023-01-09T15:31:13;11.63;;;2.35;;
62362;SDS011;48396;48.426;1.500;2023-01-09T15:33:42;11.95;;;2.75;;
62362;SDS011;48396;48.426;1.500;2023-01-09T15:36:12;8.48;;;2.38;;
62362;SDS011;48396;48.426;1.500;2023-01-09T15:38:43;11.32;;;2.53;;
62362;SDS011;48396;48.426;1.500;2023-01-09T15:41:11;9.82;;;2.42;;
62362;SDS011;48396;48.426;1.500;2023-01-09T15:46:29;8.88;;;2.30;;
62362;SDS011;48396;48.426;1.500;2023-01-09T15:48:55;8.85;;;2.13;;
62362;SDS011;48396;48.426;1.500;2023-01-09T15:51:22;7.53;;;2.10;;
62362;SDS011;48396;48.426;1.500;2023-01-09T15:53:49;10.48;;;2.08;;
62362;SDS011;48396;48.426;1.500;2023-01-09T15:56:22;9.15;;;2.03;;
62362;SDS011;48396;48.426;1.500;2023-01-09T15:58:49;12.38;;;2.60;;
62362;SDS011;48396;48.426;1.500;2023-01-09T16:04:02;9.18;;;2.70;;
62362;SDS011;48396;48.426;1.500;2023-01-09T16:06:29;14.32;;;2.58;;
62362;SDS011;48396;48.426;1.500;2023-01-09T16:08:57;9.27;;;2.50;;
62362;SDS011;48396;48.426;1.500;2023-01-09T16:13:55;8.85;;;2.05;;
62362;SDS011;48396;48.426;1.500;2023-01-09T16:16:49;7.70;;;2.22;;
62362;SDS011;48396;48.426;1.500;2023-01-09T16:22:19;11.93;;;2.60;;
62362;SDS011;48396;48.426;1.500;2023-01-09T16:24:45;12.25;;;3.60;;
62362;SDS011;48396;48.426;1.500;2023-01-09T16:29:45;16.08;;;2.83;;
62362;SDS011;48396;48.426;1.500;2023-01-09T16:32:20;11.50;;;2.10;;
62362;SDS011;48396;48.426;1.500;2023-01-09T16:34:58;11.65;;;2.08;;
62362;SDS011;48396;48.426;1.500;2023-01-09T16:37:26;10.40;;;2.85;;
62362;SDS011;48396;48.426;1.500;2023-01-09T16:42:45;6.93;;;2.38;;
62362;SDS011;48396;48.426;1.500;2023-01-09T16:48:23;8.60;;;2.47;;
62362;SDS011;48396;48.426;1.500;2023-01-09T16:50:49;6.93;;;2.40;;
62362;SDS011;48396;48.426;1.500;2023-01-09T16:53:20;10.82;;;2.88;;
62362;SDS011;48396;48.426;1.500;2023-01-09T16:55:48;14.95;;;3.92;;
62362;SDS011;48396;48.426;1.500;2023-01-09T16:58:15;24.48;;;7.38;;
62362;SDS011;48396;48.426;1.500;2023-01-09T17:00:47;17.25;;;6.25;;
62362;SDS011;48396;48.426;1.500;2023-01-09T17:03:13;13.68;;;3.85;;
62362;SDS011;48396;48.426;1.500;2023-01-09T17:05:40;13.55;;;3.22;;
62362;SDS011;48396;48.426;1.500;2023-01-09T17:08:22;13.43;;;3.28;;
62362;SDS011;48396;48.426;1.500;2023-01-09T17:10:56;12.23;;;2.60;;
62362;SDS011;48396;48.426;1.500;2023-01-09T17:13:23;14.07;;;3.70;;
62362;SDS011;48396;48.426;1.500;2023-01-09T17:15:49;11.82;;;2.85;;
62362;SDS011;48396;48.426;1.500;2023-01-09T17:18:18;13.75;;;3.13;;
62362;SDS011;48396;48.426;1.500;2023-01-09T17:20:48;7.10;;;2.58;;
62362;SDS011;48396;48.426;1.500;2023-01-09T17:23:22;7.05;;;2.33;;
62362;SDS011;48396;48.426;1.500;2023-01-09T17:25:50;7.32;;;2.60;;
62362;SDS011;48396;48.426;1.500;2023-01-09T17:28:38;11.45;;;3.08;;